sensor_id;sensor_type;location;lat;lon;timestamp;temperature;humidity
21811;DHT22;11067;48.788;9.208;2023-11-22T00:00:27;8.20;99.90
21811;DHT22;11067;48.788;9.208;2023-11-22T00:03:00;8.20;99.90
21811;DHT22;11067;48.788;9.208;2023-11-22T00:05:25;8.20;99.90
21811;DHT22;11067;48.788;9.208;2023-11-22T00:07:51;7.90;99.90
21811;DHT22;11067;48.788;9.208;2023-11-22T00:10:17;7.60;99.90
21811;DHT22;11067;48.788;9.208;2023-11-22T00:12:43;7.50;99.90
21811;DHT22;11067;48.788;9.208;2023-11-22T00:15:08;7.40;99.90
21811;DHT22;11067;48.788;9.208;2023-11-22T00:17:35;7.20;99.90
21811;DHT22;11067;48.788;9.208;2023-11-22T00:20:02;7.00;99.90
21811;DHT22;11067;48.788;9.208;2023-11-22T00:22:31;7.00;99.90
21811;DHT22;11067;48.788;9.208;2023-11-22T00:24:58;6.90;99.90
21811;DHT22;11067;48.788;9.208;2023-11-22T00:27:23;6.60;99.90
21811;DHT22;11067;48.788;9.208;2023-11-22T00:29:49;6.80;99.90
21811;DHT22;11067;48.788;9.208;2023-11-22T00:32:14;6.70;99.90
21811;DHT22;11067;48.788;9.208;2023-11-22T00:34:40;6.60;99.90
21811;DHT22;11067;48.788;9.208;2023-11-22T00:37:06;6.60;99.90
21811;DHT22;11067;48.788;9.208;2023-11-22T00:39:31;6.60;99.90
21811;DHT22;11067;48.788;9.208;2023-11-22T00:41:57;6.60;99.90
21811;DHT22;11067;48.788;9.208;2023-11-22T00:44:22;6.50;99.90
21811;DHT22;11067;48.788;9.208;2023-11-22T00:46:48;6.60;99.90
21811;DHT22;11067;48.788;9.208;2023-11-22T00:49:13;6.50;99.90
21811;DHT22;11067;48.788;9.208;2023-11-22T00:51:39;6.40;99.90
21811;DHT22;11067;48.788;9.208;2023-11-22T00:54:05;6.30;99.90
21811;DHT22;11067;48.788;9.208;2023-11-22T00:56:30;6.30;99.90
21811;DHT22;11067;48.788;9.208;2023-11-22T00:58:56;6.30;99.90
21811;DHT22;11067;48.788;9.208;2023-11-22T01:01:25;6.20;99.90
21811;DHT22;11067;48.788;9.208;2023-11-22T01:03:51;6.20;99.90
21811;DHT22;11067;48.788;9.208;2023-11-22T01:06:16;6.20;99.90
21811;DHT22;11067;48.788;9.208;2023-11-22T01:08:43;6.20;99.90
21811;DHT22;11067;48.788;9.208;2023-11-22T01:11:08;6.10;99.90
21811;DHT22;11067;48.788;9.208;2023-11-22T01:13:34;6.10;99.90
21811;DHT22;11067;48.788;9.208;2023-11-22T01:16:06;6.00;99.90
21811;DHT22;11067;48.788;9.208;2023-11-22T01:18:32;5.90;99.90
21811;DHT22;11067;48.788;9.208;2023-11-22T01:20:57;5.90;99.90
21811;DHT22;11067;48.788;9.208;2023-11-22T01:23:23;5.90;99.90
21811;DHT22;11067;48.788;9.208;2023-11-22T01:25:48;5.80;99.90
21811;DHT22;11067;48.788;9.208;2023-11-22T01:28:15;5.90;99.90
21811;DHT22;11067;48.788;9.208;2023-11-22T01:30:43;5.70;99.90
21811;DHT22;11067;48.788;9.208;2023-11-22T01:33:13;5.70;99.90
21811;DHT22;11067;48.788;9.208;2023-11-22T01:35:39;5.60;99.90
21811;DHT22;11067;48.788;9.208;2023-11-22T01:38:05;5.70;99.90
21811;DHT22;11067;48.788;9.208;2023-11-22T01:40:31;5.70;99.90
21811;DHT22;11067;48.788;9.208;2023-11-22T01:42:59;5.60;99.90
21811;DHT22;11067;48.788;9.208;2023-11-22T01:45:25;5.60;99.90
21811;DHT22;11067;48.788;9.208;2023-11-22T01:47:52;5.60;99.90
21811;DHT22;11067;48.788;9.208;2023-11-22T01:50:18;5.50;99.90
21811;DHT22;11067;48.788;9.208;2023-11-22T01:52:44;5.60;99.90
21811;DHT22;11067;48.788;9.208;2023-11-22T01:55:10;5.50;99.90
21811;DHT22;11067;48.788;9.208;2023-11-22T01:57:37;5.60;99.90
21811;DHT22;11067;48.788;9.208;2023-11-22T02:00:04;5.50;99.90
21811;DHT22;11067;48.788;9.208;2023-11-22T02:02:33;5.30;99.90
21811;DHT22;11067;48.788;9.208;2023-11-22T02:04:59;5.40;99.90
21811;DHT22;11067;48.788;9.208;2023-11-22T02:07:27;5.30;99.90
21811;DHT22;11067;48.788;9.208;2023-11-22T02:09:52;5.30;99.90
21811;DHT22;11067;48.788;9.208;2023-11-22T02:12:18;5.30;99.90
21811;DHT22;11067;48.788;9.208;2023-11-22T02:14:45;5.20;99.90
21811;DHT22;11067;48.788;9.208;2023-11-22T02:17:11;5.20;99.90
21811;DHT22;11067;48.788;9.208;2023-11-22T02:19:36;5.20;99.90
21811;DHT22;11067;48.788;9.208;2023-11-22T02:22:02;5.30;99.90
21811;DHT22;11067;48.788;9.208;2023-11-22T02:24:28;5.20;99.90
21811;DHT22;11067;48.788;9.208;2023-11-22T02:26:53;5.20;99.90
21811;DHT22;11067;48.788;9.208;2023-11-22T02:29:19;5.20;99.90
21811;DHT22;11067;48.788;9.208;2023-11-22T02:31:45;5.10;99.90
21811;DHT22;11067;48.788;9.208;2023-11-22T02:34:11;5.10;99.90
21811;DHT22;11067;48.788;9.208;2023-11-22T02:36:37;5.10;99.90
21811;DHT22;11067;48.788;9.208;2023-11-22T02:39:03;5.10;99.90
21811;DHT22;11067;48.788;9.208;2023-11-22T02:41:29;5.00;99.90
21811;DHT22;11067;48.788;9.208;2023-11-22T02:43:57;5.10;99.90
21811;DHT22;11067;48.788;9.208;2023-11-22T02:46:23;5.00;99.90
21811;DHT22;11067;48.788;9.208;2023-11-22T02:48:49;5.00;99.90
21811;DHT22;11067;48.788;9.208;2023-11-22T02:51:14;5.00;99.90
21811;DHT22;11067;48.788;9.208;2023-11-22T02:53:41;5.10;99.90
21811;DHT22;11067;48.788;9.208;2023-11-22T02:56:11;4.90;99.90
21811;DHT22;11067;48.788;9.208;2023-11-22T02:58:37;4.90;99.90
21811;DHT22;11067;48.788;9.208;2023-11-22T03:01:02;4.90;99.90
21811;DHT22;11067;48.788;9.208;2023-11-22T03:03:28;4.90;99.90
21811;DHT22;11067;48.788;9.208;2023-11-22T03:05:54;4.90;99.90
21811;DHT22;11067;48.788;9.208;2023-11-22T03:08:20;4.80;99.90
21811;DHT22;11067;48.788;9.208;2023-11-22T03:10:57;4.70;99.90
21811;DHT22;11067;48.788;9.208;2023-11-22T03:13:23;4.70;99.90
21811;DHT22;11067;48.788;9.208;2023-11-22T03:15:48;4.80;99.90
21811;DHT22;11067;48.788;9.208;2023-11-22T03:18:14;4.70;99.90
21811;DHT22;11067;48.788;9.208;2023-11-22T03:20:41;4.70;99.90
21811;DHT22;11067;48.788;9.208;2023-11-22T03:23:08;4.80;99.90
21811;DHT22;11067;48.788;9.208;2023-11-22T03:25:36;4.70;99.90
21811;DHT22;11067;48.788;9.208;2023-11-22T03:28:02;4.70;99.90
21811;DHT22;11067;48.788;9.208;2023-11-22T03:30:28;4.70;99.90
21811;DHT22;11067;48.788;9.208;2023-11-22T03:32:53;4.60;99.90
21811;DHT22;11067;48.788;9.208;2023-11-22T03:35:21;4.70;99.90
21811;DHT22;11067;48.788;9.208;2023-11-22T03:37:46;4.60;99.90
21811;DHT22;11067;48.788;9.208;2023-11-22T03:40:12;4.70;99.90
21811;DHT22;11067;48.788;9.208;2023-11-22T03:42:39;4.60;99.90
21811;DHT22;11067;48.788;9.208;2023-11-22T03:45:05;4.60;99.90
21811;DHT22;11067;48.788;9.208;2023-11-22T03:47:32;4.60;99.90
21811;DHT22;11067;48.788;9.208;2023-11-22T03:49:58;4.60;99.90
21811;DHT22;11067;48.788;9.208;2023-11-22T03:52:24;4.50;99.90
21811;DHT22;11067;48.788;9.208;2023-11-22T03:54:50;4.50;99.90
21811;DHT22;11067;48.788;9.208;2023-11-22T03:57:15;4.60;99.90
21811;DHT22;11067;48.788;9.208;2023-11-22T03:59:42;4.60;99.90
21811;DHT22;11067;48.788;9.208;2023-11-22T04:02:08;4.50;99.90
21811;DHT22;11067;48.788;9.208;2023-11-22T04:04:39;4.50;99.90
21811;DHT22;11067;48.788;9.208;2023-11-22T04:07:06;4.50;99.90
21811;DHT22;11067;48.788;9.208;2023-11-22T04:09:31;4.50;99.90
21811;DHT22;11067;48.788;9.208;2023-11-22T04:11:58;4.60;99.90
21811;DHT22;11067;48.788;9.208;2023-11-22T04:14:25;4.60;99.90
21811;DHT22;11067;48.788;9.208;2023-11-22T04:16:52;4.60;99.90
21811;DHT22;11067;48.788;9.208;2023-11-22T04:19:18;4.50;99.90
21811;DHT22;11067;48.788;9.208;2023-11-22T04:21:44;4.50;99.90
21811;DHT22;11067;48.788;9.208;2023-11-22T04:24:09;4.60;99.90
21811;DHT22;11067;48.788;9.208;2023-11-22T04:26:35;4.60;99.90
21811;DHT22;11067;48.788;9.208;2023-11-22T04:29:01;4.50;99.90
21811;DHT22;11067;48.788;9.208;2023-11-22T04:31:27;4.70;99.90
21811;DHT22;11067;48.788;9.208;2023-11-22T04:33:52;4.50;99.90
21811;DHT22;11067;48.788;9.208;2023-11-22T04:36:19;4.50;99.90
21811;DHT22;11067;48.788;9.208;2023-11-22T04:38:45;4.50;99.90
21811;DHT22;11067;48.788;9.208;2023-11-22T04:41:10;4.60;99.90
21811;DHT22;11067;48.788;9.208;2023-11-22T04:43:36;4.40;99.90
21811;DHT22;11067;48.788;9.208;2023-11-22T04:46:02;4.40;99.90
21811;DHT22;11067;48.788;9.208;2023-11-22T04:48:30;4.50;99.90
21811;DHT22;11067;48.788;9.208;2023-11-22T04:50:55;4.50;99.90
21811;DHT22;11067;48.788;9.208;2023-11-22T04:53:21;4.40;99.90
21811;DHT22;11067;48.788;9.208;2023-11-22T04:55:46;4.50;99.90
21811;DHT22;11067;48.788;9.208;2023-11-22T04:58:12;4.50;99.90
21811;DHT22;11067;48.788;9.208;2023-11-22T05:00:37;4.50;99.90
21811;DHT22;11067;48.788;9.208;2023-11-22T05:03:03;4.40;99.90
21811;DHT22;11067;48.788;9.208;2023-11-22T05:05:28;4.50;99.90
21811;DHT22;11067;48.788;9.208;2023-11-22T05:07:54;4.60;99.90
21811;DHT22;11067;48.788;9.208;2023-11-22T05:10:19;4.50;99.90
21811;DHT22;11067;48.788;9.208;2023-11-22T05:12:45;4.40;99.90
21811;DHT22;11067;48.788;9.208;2023-11-22T05:15:10;4.50;99.90
21811;DHT22;11067;48.788;9.208;2023-11-22T05:17:37;4.50;99.90
21811;DHT22;11067;48.788;9.208;2023-11-22T05:20:02;4.50;99.90
21811;DHT22;11067;48.788;9.208;2023-11-22T05:22:29;4.50;99.90
21811;DHT22;11067;48.788;9.208;2023-11-22T05:24:55;4.50;99.90
21811;DHT22;11067;48.788;9.208;2023-11-22T05:27:21;4.60;99.90
21811;DHT22;11067;48.788;9.208;2023-11-22T05:29:47;4.50;99.90
21811;DHT22;11067;48.788;9.208;2023-11-22T05:32:12;4.50;99.90
21811;DHT22;11067;48.788;9.208;2023-11-22T05:34:38;4.60;99.90
21811;DHT22;11067;48.788;9.208;2023-11-22T05:37:06;4.60;99.90
21811;DHT22;11067;48.788;9.208;2023-11-22T05:39:31;4.50;99.90
21811;DHT22;11067;48.788;9.208;2023-11-22T05:41:57;4.40;99.90
21811;DHT22;11067;48.788;9.208;2023-11-22T05:44:22;4.40;99.90
21811;DHT22;11067;48.788;9.208;2023-11-22T05:46:48;4.20;99.90
21811;DHT22;11067;48.788;9.208;2023-11-22T05:49:13;4.20;99.90
21811;DHT22;11067;48.788;9.208;2023-11-22T05:51:39;4.20;99.90
21811;DHT22;11067;48.788;9.208;2023-11-22T05:54:04;4.30;99.90
21811;DHT22;11067;48.788;9.208;2023-11-22T05:56:30;4.30;99.90
21811;DHT22;11067;48.788;9.208;2023-11-22T05:58:57;4.20;99.90
21811;DHT22;11067;48.788;9.208;2023-11-22T06:01:23;4.30;99.90
21811;DHT22;11067;48.788;9.208;2023-11-22T06:03:48;4.30;99.90
21811;DHT22;11067;48.788;9.208;2023-11-22T06:06:14;4.20;99.90
21811;DHT22;11067;48.788;9.208;2023-11-22T06:08:40;4.20;99.90
21811;DHT22;11067;48.788;9.208;2023-11-22T06:11:05;4.20;99.90
21811;DHT22;11067;48.788;9.208;2023-11-22T06:13:32;4.20;99.90
21811;DHT22;11067;48.788;9.208;2023-11-22T06:15:58;4.20;99.90
21811;DHT22;11067;48.788;9.208;2023-11-22T06:18:23;4.20;99.90
21811;DHT22;11067;48.788;9.208;2023-11-22T06:20:57;4.20;99.90
21811;DHT22;11067;48.788;9.208;2023-11-22T06:23:23;4.20;99.90
21811;DHT22;11067;48.788;9.208;2023-11-22T06:25:49;4.10;99.90
21811;DHT22;11067;48.788;9.208;2023-11-22T06:28:15;4.20;99.90
21811;DHT22;11067;48.788;9.208;2023-11-22T06:30:41;4.20;99.90
21811;DHT22;11067;48.788;9.208;2023-11-22T06:33:07;4.20;99.90
21811;DHT22;11067;48.788;9.208;2023-11-22T06:35:33;4.20;99.90
21811;DHT22;11067;48.788;9.208;2023-11-22T06:37:58;4.20;99.90
21811;DHT22;11067;48.788;9.208;2023-11-22T06:40:24;4.10;99.90
21811;DHT22;11067;48.788;9.208;2023-11-22T06:42:49;4.10;99.90
21811;DHT22;11067;48.788;9.208;2023-11-22T06:45:15;4.10;99.90
21811;DHT22;11067;48.788;9.208;2023-11-22T06:47:44;4.00;99.90
21811;DHT22;11067;48.788;9.208;2023-11-22T06:50:10;4.10;99.90
21811;DHT22;11067;48.788;9.208;2023-11-22T06:52:37;4.10;99.90
21811;DHT22;11067;48.788;9.208;2023-11-22T06:55:06;4.20;99.90
21811;DHT22;11067;48.788;9.208;2023-11-22T06:57:35;4.20;99.90
21811;DHT22;11067;48.788;9.208;2023-11-22T07:00:02;4.10;99.90
21811;DHT22;11067;48.788;9.208;2023-11-22T07:02:31;4.00;99.90
21811;DHT22;11067;48.788;9.208;2023-11-22T07:04:56;4.10;99.90
21811;DHT22;11067;48.788;9.208;2023-11-22T07:07:24;4.00;99.90
21811;DHT22;11067;48.788;9.208;2023-11-22T07:09:50;3.90;99.90
21811;DHT22;11067;48.788;9.208;2023-11-22T07:12:16;3.90;99.90
21811;DHT22;11067;48.788;9.208;2023-11-22T07:14:42;3.80;99.90
21811;DHT22;11067;48.788;9.208;2023-11-22T07:17:08;3.70;99.90
21811;DHT22;11067;48.788;9.208;2023-11-22T07:19:34;3.70;99.90
21811;DHT22;11067;48.788;9.208;2023-11-22T07:22:04;3.80;99.90
21811;DHT22;11067;48.788;9.208;2023-11-22T07:24:30;3.80;99.90
21811;DHT22;11067;48.788;9.208;2023-11-22T07:26:59;3.70;99.90
21811;DHT22;11067;48.788;9.208;2023-11-22T07:29:26;3.70;99.90
21811;DHT22;11067;48.788;9.208;2023-11-22T07:31:51;3.70;99.90
21811;DHT22;11067;48.788;9.208;2023-11-22T07:34:17;3.60;99.90
21811;DHT22;11067;48.788;9.208;2023-11-22T07:36:44;3.60;99.90
21811;DHT22;11067;48.788;9.208;2023-11-22T07:39:09;3.60;99.90
21811;DHT22;11067;48.788;9.208;2023-11-22T07:41:37;3.60;99.90
21811;DHT22;11067;48.788;9.208;2023-11-22T07:44:03;3.50;99.90
21811;DHT22;11067;48.788;9.208;2023-11-22T07:46:29;3.60;99.90
21811;DHT22;11067;48.788;9.208;2023-11-22T07:48:54;3.60;99.90
21811;DHT22;11067;48.788;9.208;2023-11-22T07:51:20;3.60;99.90
21811;DHT22;11067;48.788;9.208;2023-11-22T07:53:45;3.60;99.90
21811;DHT22;11067;48.788;9.208;2023-11-22T07:56:11;3.60;99.90
21811;DHT22;11067;48.788;9.208;2023-11-22T07:58:37;3.60;99.90
21811;DHT22;11067;48.788;9.208;2023-11-22T08:01:03;3.60;99.90
21811;DHT22;11067;48.788;9.208;2023-11-22T08:03:32;3.70;99.90
21811;DHT22;11067;48.788;9.208;2023-11-22T08:05:57;3.50;99.90
21811;DHT22;11067;48.788;9.208;2023-11-22T08:08:23;3.60;99.90
21811;DHT22;11067;48.788;9.208;2023-11-22T08:10:49;3.40;99.90
21811;DHT22;11067;48.788;9.208;2023-11-22T08:13:19;3.40;99.90
21811;DHT22;11067;48.788;9.208;2023-11-22T08:15:45;3.60;99.90
21811;DHT22;11067;48.788;9.208;2023-11-22T08:18:12;3.50;99.90
21811;DHT22;11067;48.788;9.208;2023-11-22T08:20:38;3.50;99.90
21811;DHT22;11067;48.788;9.208;2023-11-22T08:23:04;3.40;99.90
21811;DHT22;11067;48.788;9.208;2023-11-22T08:25:31;3.50;99.90
21811;DHT22;11067;48.788;9.208;2023-11-22T08:27:57;3.60;99.90
21811;DHT22;11067;48.788;9.208;2023-11-22T08:30:23;3.50;99.90
21811;DHT22;11067;48.788;9.208;2023-11-22T08:32:48;3.40;99.90
21811;DHT22;11067;48.788;9.208;2023-11-22T08:35:19;3.40;99.90
21811;DHT22;11067;48.788;9.208;2023-11-22T08:37:45;3.50;99.90
21811;DHT22;11067;48.788;9.208;2023-11-22T08:43:03;3.50;99.90
21811;DHT22;11067;48.788;9.208;2023-11-22T08:45:30;3.40;99.90
21811;DHT22;11067;48.788;9.208;2023-11-22T08:47:57;3.40;99.90
21811;DHT22;11067;48.788;9.208;2023-11-22T08:50:22;3.40;99.90
21811;DHT22;11067;48.788;9.208;2023-11-22T08:52:49;3.30;99.90
21811;DHT22;11067;48.788;9.208;2023-11-22T08:55:18;3.40;99.90
21811;DHT22;11067;48.788;9.208;2023-11-22T08:57:47;3.40;99.90
21811;DHT22;11067;48.788;9.208;2023-11-22T09:00:13;3.30;99.90
21811;DHT22;11067;48.788;9.208;2023-11-22T09:02:40;3.30;99.90
21811;DHT22;11067;48.788;9.208;2023-11-22T09:05:06;3.40;99.90
21811;DHT22;11067;48.788;9.208;2023-11-22T09:07:34;3.50;99.90
21811;DHT22;11067;48.788;9.208;2023-11-22T09:10:02;3.30;99.90
21811;DHT22;11067;48.788;9.208;2023-11-22T09:12:35;3.30;99.90
21811;DHT22;11067;48.788;9.208;2023-11-22T09:15:01;3.20;99.90
21811;DHT22;11067;48.788;9.208;2023-11-22T09:17:27;3.10;99.90
21811;DHT22;11067;48.788;9.208;2023-11-22T09:19:53;3.20;99.90
21811;DHT22;11067;48.788;9.208;2023-11-22T09:22:21;3.10;99.90
21811;DHT22;11067;48.788;9.208;2023-11-22T09:24:46;3.10;99.90
21811;DHT22;11067;48.788;9.208;2023-11-22T09:27:12;3.30;99.90
21811;DHT22;11067;48.788;9.208;2023-11-22T09:29:42;3.20;99.90
21811;DHT22;11067;48.788;9.208;2023-11-22T09:32:07;3.20;99.90
21811;DHT22;11067;48.788;9.208;2023-11-22T09:34:33;3.30;99.90
21811;DHT22;11067;48.788;9.208;2023-11-22T09:36:58;3.30;99.90
21811;DHT22;11067;48.788;9.208;2023-11-22T09:39:24;3.40;99.90
21811;DHT22;11067;48.788;9.208;2023-11-22T09:41:50;3.40;99.90
21811;DHT22;11067;48.788;9.208;2023-11-22T09:44:17;3.20;99.90
21811;DHT22;11067;48.788;9.208;2023-11-22T09:46:43;3.40;99.90
21811;DHT22;11067;48.788;9.208;2023-11-22T09:49:10;3.50;99.90
21811;DHT22;11067;48.788;9.208;2023-11-22T09:51:41;3.60;99.90
21811;DHT22;11067;48.788;9.208;2023-11-22T09:54:09;3.60;99.90
21811;DHT22;11067;48.788;9.208;2023-11-22T09:56:39;3.70;99.90
21811;DHT22;11067;48.788;9.208;2023-11-22T09:59:06;3.60;99.90
21811;DHT22;11067;48.788;9.208;2023-11-22T10:01:33;3.60;99.90
21811;DHT22;11067;48.788;9.208;2023-11-22T10:04:04;3.60;99.90
21811;DHT22;11067;48.788;9.208;2023-11-22T10:06:31;3.60;99.90
21811;DHT22;11067;48.788;9.208;2023-11-22T10:09:03;3.70;99.90
21811;DHT22;11067;48.788;9.208;2023-11-22T10:11:33;3.80;99.90
21811;DHT22;11067;48.788;9.208;2023-11-22T10:13:58;3.50;99.90
21811;DHT22;11067;48.788;9.208;2023-11-22T10:16:24;3.70;99.90
21811;DHT22;11067;48.788;9.208;2023-11-22T10:18:50;3.50;99.90
21811;DHT22;11067;48.788;9.208;2023-11-22T10:21:20;3.40;99.90
21811;DHT22;11067;48.788;9.208;2023-11-22T10:23:46;3.30;99.90
21811;DHT22;11067;48.788;9.208;2023-11-22T10:26:13;3.30;99.90
21811;DHT22;11067;48.788;9.208;2023-11-22T10:28:41;3.30;99.90
21811;DHT22;11067;48.788;9.208;2023-11-22T10:31:09;3.40;99.90
21811;DHT22;11067;48.788;9.208;2023-11-22T10:33:42;3.40;99.90
21811;DHT22;11067;48.788;9.208;2023-11-22T10:36:07;3.70;99.90
21811;DHT22;11067;48.788;9.208;2023-11-22T10:38:34;3.70;99.90
21811;DHT22;11067;48.788;9.208;2023-11-22T10:40:59;3.60;99.90
21811;DHT22;11067;48.788;9.208;2023-11-22T10:43:29;3.70;99.90
21811;DHT22;11067;48.788;9.208;2023-11-22T10:45:58;3.90;99.90
21811;DHT22;11067;48.788;9.208;2023-11-22T10:48:24;3.80;99.90
21811;DHT22;11067;48.788;9.208;2023-11-22T10:50:53;3.90;99.90
21811;DHT22;11067;48.788;9.208;2023-11-22T10:53:30;3.90;99.90
21811;DHT22;11067;48.788;9.208;2023-11-22T10:56:04;3.70;99.90
21811;DHT22;11067;48.788;9.208;2023-11-22T10:58:32;3.70;99.90
21811;DHT22;11067;48.788;9.208;2023-11-22T11:00:58;3.80;99.90
21811;DHT22;11067;48.788;9.208;2023-11-22T11:03:28;3.80;99.90
21811;DHT22;11067;48.788;9.208;2023-11-22T11:06:02;3.80;99.90
21811;DHT22;11067;48.788;9.208;2023-11-22T11:08:30;3.70;99.90
21811;DHT22;11067;48.788;9.208;2023-11-22T11:10:57;3.70;99.90
21811;DHT22;11067;48.788;9.208;2023-11-22T11:13:24;3.70;99.90
21811;DHT22;11067;48.788;9.208;2023-11-22T11:15:50;3.60;99.90
21811;DHT22;11067;48.788;9.208;2023-11-22T11:18:17;3.70;99.90
21811;DHT22;11067;48.788;9.208;2023-11-22T11:20:55;3.70;99.90
21811;DHT22;11067;48.788;9.208;2023-11-22T11:23:24;3.70;99.90
21811;DHT22;11067;48.788;9.208;2023-11-22T11:25:54;3.60;99.90
21811;DHT22;11067;48.788;9.208;2023-11-22T11:28:20;3.40;99.90
21811;DHT22;11067;48.788;9.208;2023-11-22T11:30:50;3.50;99.90
21811;DHT22;11067;48.788;9.208;2023-11-22T11:33:33;3.50;99.90
21811;DHT22;11067;48.788;9.208;2023-11-22T11:36:01;3.80;99.90
21811;DHT22;11067;48.788;9.208;2023-11-22T11:38:34;3.80;99.90
21811;DHT22;11067;48.788;9.208;2023-11-22T11:41:09;3.70;99.90
21811;DHT22;11067;48.788;9.208;2023-11-22T11:43:46;3.80;99.90
21811;DHT22;11067;48.788;9.208;2023-11-22T11:46:13;3.90;99.90
21811;DHT22;11067;48.788;9.208;2023-11-22T11:48:43;3.90;99.90
21811;DHT22;11067;48.788;9.208;2023-11-22T11:51:09;3.80;99.90
21811;DHT22;11067;48.788;9.208;2023-11-22T11:53:34;3.90;99.90
21811;DHT22;11067;48.788;9.208;2023-11-22T11:56:01;4.00;99.90
21811;DHT22;11067;48.788;9.208;2023-11-22T11:58:27;4.10;99.90
21811;DHT22;11067;48.788;9.208;2023-11-22T12:00:54;4.10;99.90
21811;DHT22;11067;48.788;9.208;2023-11-22T12:03:20;4.00;99.90
21811;DHT22;11067;48.788;9.208;2023-11-22T12:05:47;4.10;99.90
21811;DHT22;11067;48.788;9.208;2023-11-22T12:08:13;4.10;99.90
21811;DHT22;11067;48.788;9.208;2023-11-22T12:10:42;4.10;99.90
21811;DHT22;11067;48.788;9.208;2023-11-22T12:13:08;4.00;99.90
21811;DHT22;11067;48.788;9.208;2023-11-22T12:15:34;4.20;99.90
21811;DHT22;11067;48.788;9.208;2023-11-22T12:18:01;4.10;99.90
21811;DHT22;11067;48.788;9.208;2023-11-22T12:20:27;4.10;99.90
21811;DHT22;11067;48.788;9.208;2023-11-22T12:22:57;4.00;99.90
21811;DHT22;11067;48.788;9.208;2023-11-22T12:25:26;4.10;99.90
21811;DHT22;11067;48.788;9.208;2023-11-22T12:27:54;4.10;99.90
21811;DHT22;11067;48.788;9.208;2023-11-22T12:30:30;4.10;99.90
21811;DHT22;11067;48.788;9.208;2023-11-22T12:32:57;3.90;99.90
21811;DHT22;11067;48.788;9.208;2023-11-22T12:35:23;4.10;99.90
21811;DHT22;11067;48.788;9.208;2023-11-22T12:37:49;4.20;99.90
21811;DHT22;11067;48.788;9.208;2023-11-22T12:40:15;4.20;99.90
21811;DHT22;11067;48.788;9.208;2023-11-22T12:42:50;4.20;99.90
21811;DHT22;11067;48.788;9.208;2023-11-22T12:45:23;4.20;99.90
21811;DHT22;11067;48.788;9.208;2023-11-22T12:47:53;4.00;99.90
21811;DHT22;11067;48.788;9.208;2023-11-22T12:50:38;4.10;99.90
21811;DHT22;11067;48.788;9.208;2023-11-22T12:53:11;4.00;99.90
21811;DHT22;11067;48.788;9.208;2023-11-22T12:55:47;3.90;99.90
21811;DHT22;11067;48.788;9.208;2023-11-22T12:58:18;4.00;99.90
21811;DHT22;11067;48.788;9.208;2023-11-22T13:00:45;3.90;99.90
21811;DHT22;11067;48.788;9.208;2023-11-22T13:03:12;3.90;99.90
21811;DHT22;11067;48.788;9.208;2023-11-22T13:05:42;4.00;99.90
21811;DHT22;11067;48.788;9.208;2023-11-22T13:08:09;4.10;99.90
21811;DHT22;11067;48.788;9.208;2023-11-22T13:10:50;4.20;99.90
21811;DHT22;11067;48.788;9.208;2023-11-22T13:13:22;4.10;99.90
21811;DHT22;11067;48.788;9.208;2023-11-22T13:15:48;4.10;99.90
21811;DHT22;11067;48.788;9.208;2023-11-22T13:18:17;4.20;99.90
21811;DHT22;11067;48.788;9.208;2023-11-22T13:20:43;4.00;99.90
21811;DHT22;11067;48.788;9.208;2023-11-22T13:23:10;4.10;99.90
21811;DHT22;11067;48.788;9.208;2023-11-22T13:25:36;4.30;99.90
21811;DHT22;11067;48.788;9.208;2023-11-22T13:28:02;4.20;99.90
21811;DHT22;11067;48.788;9.208;2023-11-22T13:30:28;4.30;99.90
21811;DHT22;11067;48.788;9.208;2023-11-22T13:32:54;4.10;99.90
21811;DHT22;11067;48.788;9.208;2023-11-22T13:35:24;4.10;99.90
21811;DHT22;11067;48.788;9.208;2023-11-22T13:37:51;4.10;99.90
21811;DHT22;11067;48.788;9.208;2023-11-22T13:40:19;4.20;99.90
21811;DHT22;11067;48.788;9.208;2023-11-22T13:42:49;4.10;99.90
21811;DHT22;11067;48.788;9.208;2023-11-22T13:45:16;4.20;99.90
21811;DHT22;11067;48.788;9.208;2023-11-22T13:47:46;4.20;99.90
21811;DHT22;11067;48.788;9.208;2023-11-22T13:50:13;4.20;99.90
21811;DHT22;11067;48.788;9.208;2023-11-22T13:52:44;4.30;99.90
21811;DHT22;11067;48.788;9.208;2023-11-22T13:55:11;4.30;99.90
21811;DHT22;11067;48.788;9.208;2023-11-22T13:57:38;4.30;99.90
21811;DHT22;11067;48.788;9.208;2023-11-22T14:00:08;4.30;99.90
21811;DHT22;11067;48.788;9.208;2023-11-22T14:02:38;4.30;99.90
21811;DHT22;11067;48.788;9.208;2023-11-22T14:05:04;4.00;99.90
21811;DHT22;11067;48.788;9.208;2023-11-22T14:07:34;3.70;99.90
21811;DHT22;11067;48.788;9.208;2023-11-22T14:10:00;3.60;99.90
21811;DHT22;11067;48.788;9.208;2023-11-22T14:12:28;3.90;99.90
21811;DHT22;11067;48.788;9.208;2023-11-22T14:14:54;3.90;99.90
21811;DHT22;11067;48.788;9.208;2023-11-22T14:17:19;3.90;99.90
21811;DHT22;11067;48.788;9.208;2023-11-22T14:19:46;4.00;99.90
21811;DHT22;11067;48.788;9.208;2023-11-22T14:22:12;3.90;99.90
21811;DHT22;11067;48.788;9.208;2023-11-22T14:24:39;4.00;99.90
21811;DHT22;11067;48.788;9.208;2023-11-22T14:27:05;4.10;99.90
21811;DHT22;11067;48.788;9.208;2023-11-22T14:29:31;4.10;99.90
21811;DHT22;11067;48.788;9.208;2023-11-22T14:31:58;4.10;99.90
21811;DHT22;11067;48.788;9.208;2023-11-22T14:34:24;4.10;99.90
21811;DHT22;11067;48.788;9.208;2023-11-22T14:36:49;4.00;99.90
21811;DHT22;11067;48.788;9.208;2023-11-22T14:39:15;3.90;99.90
21811;DHT22;11067;48.788;9.208;2023-11-22T14:41:41;3.80;99.90
21811;DHT22;11067;48.788;9.208;2023-11-22T14:44:06;3.70;99.90
21811;DHT22;11067;48.788;9.208;2023-11-22T14:46:34;3.80;99.90
21811;DHT22;11067;48.788;9.208;2023-11-22T14:49:02;3.90;99.90
21811;DHT22;11067;48.788;9.208;2023-11-22T14:51:28;3.80;99.90
21811;DHT22;11067;48.788;9.208;2023-11-22T14:53:54;3.80;99.90
21811;DHT22;11067;48.788;9.208;2023-11-22T14:56:19;3.70;99.90
21811;DHT22;11067;48.788;9.208;2023-11-22T14:58:45;3.70;99.90
21811;DHT22;11067;48.788;9.208;2023-11-22T15:01:18;3.90;99.90
21811;DHT22;11067;48.788;9.208;2023-11-22T15:03:43;3.90;99.90
21811;DHT22;11067;48.788;9.208;2023-11-22T15:06:10;3.80;99.90
21811;DHT22;11067;48.788;9.208;2023-11-22T15:08:35;4.00;99.90
21811;DHT22;11067;48.788;9.208;2023-11-22T15:11:01;4.00;99.90
21811;DHT22;11067;48.788;9.208;2023-11-22T15:13:26;4.00;99.90
21811;DHT22;11067;48.788;9.208;2023-11-22T15:15:53;4.00;99.90
21811;DHT22;11067;48.788;9.208;2023-11-22T15:18:18;4.00;99.90
21811;DHT22;11067;48.788;9.208;2023-11-22T15:20:44;4.00;99.90
21811;DHT22;11067;48.788;9.208;2023-11-22T15:23:09;4.00;99.90
21811;DHT22;11067;48.788;9.208;2023-11-22T15:25:35;4.00;99.90
21811;DHT22;11067;48.788;9.208;2023-11-22T15:28:00;3.90;99.90
21811;DHT22;11067;48.788;9.208;2023-11-22T15:30:26;3.90;99.90
21811;DHT22;11067;48.788;9.208;2023-11-22T15:32:51;3.80;99.90
21811;DHT22;11067;48.788;9.208;2023-11-22T15:35:18;3.90;99.90
21811;DHT22;11067;48.788;9.208;2023-11-22T15:37:44;3.90;99.90
21811;DHT22;11067;48.788;9.208;2023-11-22T15:40:10;3.90;99.90
21811;DHT22;11067;48.788;9.208;2023-11-22T15:42:36;3.90;99.90
21811;DHT22;11067;48.788;9.208;2023-11-22T15:45:02;3.90;99.90